createdAt,value
2018-02-24T00:02:12.581Z,86.80
2018-02-24T00:04:40.180Z,86.00
2018-02-24T00:07:07.878Z,86.10
2018-02-24T00:09:35.519Z,86.50
2018-02-24T00:12:03.198Z,86.50
2018-02-24T00:14:30.863Z,86.00
2018-02-24T00:16:58.444Z,84.50
2018-02-24T00:19:26.095Z,84.50
2018-02-24T00:21:53.769Z,83.50
2018-02-24T00:24:21.399Z,83.40
2018-02-24T00:26:49.029Z,84.50
2018-02-24T00:29:16.706Z,85.20
2018-02-24T00:31:44.616Z,84.80
2018-02-24T00:34:12.258Z,85.30
2018-02-24T00:39:07.608Z,85.50
2018-02-24T00:41:35.250Z,86.30
2018-02-24T00:46:30.552Z,85.70
2018-02-24T00:48:58.195Z,85.50
2018-02-24T00:51:25.875Z,86.70
2018-02-24T00:53:53.508Z,87.80
2018-02-24T00:56:21.134Z,88.10
2018-02-24T00:58:48.821Z,87.60
2018-02-24T01:01:16.447Z,87.50
2018-02-24T01:03:44.072Z,88.00
2018-02-24T01:14:39.168Z,88.40
2018-02-24T01:17:06.803Z,88.20
2018-02-24T01:22:18.203Z,87.70
2018-02-24T01:24:45.830Z,87.90
2018-02-24T01:30:24.770Z,88.30
2018-02-24T01:32:52.469Z,88.30
2018-02-24T01:40:39.717Z,89.90
2018-02-24T01:43:09.792Z,89.80
2018-02-24T01:45:37.426Z,89.30
2018-02-24T01:48:05.055Z,89.00
2018-02-24T01:50:41.611Z,89.10
2018-02-24T01:53:09.261Z,89.10
2018-02-24T01:55:36.902Z,88.50
2018-02-24T01:58:04.604Z,89.00
2018-02-24T02:00:33.928Z,89.00
2018-02-24T02:03:01.560Z,89.00
2018-02-24T02:07:56.873Z,89.10
2018-02-24T02:24:07.791Z,89.20
2018-02-24T02:29:15.004Z,89.10
2018-02-24T02:31:42.696Z,89.20
2018-02-24T02:34:10.335Z,88.90
2018-02-24T02:36:37.959Z,88.30
2018-02-24T02:39:05.645Z,88.60
2018-02-24T02:41:33.287Z,88.90
2018-02-24T02:44:00.914Z,89.00
2018-02-24T02:46:28.601Z,89.10
2018-02-24T02:48:56.237Z,88.90
2018-02-24T02:51:23.894Z,88.40
2018-02-24T02:53:51.590Z,89.00
2018-02-24T02:56:19.212Z,89.30
2018-02-24T02:58:46.843Z,89.40
2018-02-24T03:01:14.982Z,88.90
2018-02-24T03:03:42.606Z,88.90
2018-02-24T03:06:10.232Z,88.30
2018-02-24T03:08:37.939Z,87.80
2018-02-24T03:11:05.576Z,88.20
2018-02-24T03:13:33.204Z,88.40
2018-02-24T03:16:00.900Z,88.80
2018-02-24T03:18:28.531Z,88.60
2018-02-24T03:20:56.157Z,88.60
2018-02-24T03:23:23.898Z,88.70
2018-02-24T03:25:51.532Z,88.80
2018-02-24T03:28:19.173Z,88.90
2018-02-24T03:30:46.873Z,89.20
2018-02-24T03:33:14.507Z,89.00
2018-02-24T03:35:42.135Z,88.60
2018-02-24T03:38:09.828Z,88.90
2018-02-24T03:40:37.457Z,88.80
2018-02-24T03:48:31.198Z,88.00
2018-02-24T03:50:58.888Z,87.50
2018-02-24T03:53:28.455Z,86.90
2018-02-24T03:55:56.084Z,87.20
2018-02-24T03:58:23.772Z,86.20
2018-02-24T04:00:51.398Z,85.30
2018-02-24T04:03:19.039Z,84.20
2018-02-24T04:05:46.709Z,84.50
2018-02-24T04:08:14.355Z,84.80
2018-02-24T04:10:42.004Z,85.00
2018-02-24T04:13:11.311Z,85.40
2018-02-24T04:15:38.952Z,84.90
2018-02-24T04:18:06.588Z,84.40
2018-02-24T04:20:34.266Z,84.70
2018-02-24T04:23:01.895Z,84.40
2018-02-24T04:25:29.531Z,84.80
2018-02-24T04:27:57.214Z,84.80
2018-02-24T04:30:24.848Z,85.10
2018-02-24T04:32:52.484Z,85.40
2018-02-24T04:35:20.172Z,84.70
2018-02-24T04:37:47.799Z,84.40
2018-02-24T04:40:17.352Z,84.10
2018-02-24T04:42:45.038Z,83.50
2018-02-24T04:45:12.675Z,83.60
2018-02-24T04:47:40.303Z,82.70
2018-02-24T04:50:08.010Z,83.50
2018-02-24T04:52:35.638Z,84.00
2018-02-24T04:55:03.266Z,83.60
2018-02-24T04:57:30.960Z,83.40
2018-02-24T04:59:58.590Z,83.70
2018-02-24T05:02:26.221Z,83.00
2018-02-24T05:04:54.211Z,83.40
2018-02-24T05:07:21.848Z,83.20
2018-02-24T05:12:28.637Z,83.80
2018-02-24T05:14:56.282Z,82.80
2018-02-24T05:17:23.915Z,82.60
2018-02-24T05:19:51.596Z,81.20
2018-02-24T05:22:19.223Z,81.10
2018-02-24T05:24:46.851Z,81.60
2018-02-24T05:27:14.531Z,81.70
2018-02-24T05:29:42.153Z,81.80
2018-02-24T05:32:11.551Z,82.00
2018-02-24T05:34:39.256Z,81.90
2018-02-24T05:37:06.882Z,82.50
2018-02-24T05:39:34.521Z,83.30
2018-02-24T05:42:02.200Z,82.90
2018-02-24T05:44:29.846Z,83.20
2018-02-24T05:46:57.473Z,83.70
2018-02-24T05:49:25.178Z,83.40
2018-02-24T05:51:52.812Z,83.80
2018-02-24T05:54:20.450Z,85.10
2018-02-24T05:56:48.151Z,86.70
2018-02-24T05:59:15.763Z,88.20
2018-02-24T06:01:43.419Z,89.00
2018-02-24T06:04:11.099Z,89.20
2018-02-24T06:06:38.733Z,89.40
2018-02-24T06:09:06.366Z,89.40
2018-02-24T06:11:34.059Z,89.90
2018-02-24T06:14:01.695Z,89.60
2018-02-24T06:18:57.000Z,90.30
2018-02-24T06:21:24.632Z,90.00
2018-02-24T06:23:52.258Z,89.60
2018-02-24T06:28:59.525Z,89.40
2018-02-24T06:31:27.208Z,89.90
2018-02-24T06:33:54.846Z,89.70
2018-02-24T06:36:22.476Z,89.60
2018-02-24T06:38:50.180Z,89.70
2018-02-24T06:41:17.800Z,89.80
2018-02-24T06:43:45.444Z,90.70
2018-02-24T06:46:13.130Z,91.00
2018-02-24T06:48:40.764Z,90.90
2018-02-24T06:51:08.396Z,90.30
2018-02-24T06:53:37.048Z,91.00
2018-02-24T06:56:04.679Z,90.50
2018-02-24T06:58:32.336Z,89.30
2018-02-24T07:01:00.042Z,89.50
2018-02-24T07:03:27.657Z,89.00
2018-02-24T07:05:55.694Z,88.80
2018-02-24T07:08:25.264Z,89.90
2018-02-24T07:10:51.012Z,89.20
2018-02-24T07:13:21.851Z,89.50
2018-02-24T07:15:49.537Z,90.10
2018-02-24T07:18:17.187Z,90.10
2018-02-24T07:20:44.808Z,89.70
2018-02-24T07:25:40.117Z,89.70
2018-02-24T07:28:07.744Z,90.50
2018-02-24T07:30:35.436Z,89.40
2018-02-24T07:33:03.066Z,88.50
2018-02-24T07:35:30.699Z,87.80
2018-02-24T07:37:58.383Z,87.80
2018-02-24T07:40:26.010Z,87.50
2018-02-24T07:42:53.645Z,86.70
2018-02-24T07:45:21.331Z,85.50
2018-02-24T07:47:48.960Z,87.20
2018-02-24T07:50:16.651Z,86.40
2018-02-24T07:55:23.439Z,86.50
2018-02-24T07:57:51.407Z,86.20
2018-02-24T08:00:19.051Z,85.80
2018-02-24T08:02:48.455Z,86.10
2018-02-24T08:07:43.808Z,88.60
2018-02-24T08:10:11.447Z,87.30
2018-02-24T08:12:39.141Z,85.50
2018-02-24T08:15:06.762Z,86.00
2018-02-24T08:17:34.420Z,85.70
2018-02-24T08:20:02.086Z,84.80
2018-02-24T08:22:29.740Z,92.80
2018-02-24T08:24:57.367Z,84.70
2018-02-24T08:27:25.062Z,83.40
2018-02-24T08:29:52.686Z,83.30
2018-02-24T08:32:20.335Z,82.60
2018-02-24T08:34:48.031Z,82.50
2018-02-24T08:37:15.673Z,81.70
2018-02-24T08:39:43.301Z,82.60
2018-02-24T08:42:10.991Z,80.90
2018-02-24T08:44:42.907Z,82.10
2018-02-24T08:47:10.598Z,82.90
2018-02-24T08:49:38.241Z,80.50
2018-02-24T08:52:05.897Z,79.30
2018-02-24T08:54:33.585Z,79.30
2018-02-24T08:57:01.227Z,81.40
2018-02-24T08:59:28.854Z,81.10
2018-02-24T09:01:56.574Z,81.00
2018-02-24T09:04:24.182Z,80.90
2018-02-24T09:06:51.804Z,79.90
2018-02-24T09:09:19.499Z,81.10
2018-02-24T09:11:47.124Z,81.00
2018-02-24T09:14:14.799Z,79.50
2018-02-24T09:19:21.587Z,80.00
2018-02-24T09:21:49.268Z,80.80
2018-02-24T09:24:16.901Z,80.70
2018-02-24T09:26:44.522Z,80.60
2018-02-24T09:29:12.209Z,81.20
2018-02-24T09:31:39.831Z,80.90
2018-02-24T09:34:07.454Z,81.00
2018-02-24T09:36:35.140Z,81.10
2018-02-24T09:39:02.784Z,81.60
2018-02-24T09:41:30.408Z,79.60
2018-02-24T09:43:58.092Z,81.20
2018-02-24T09:48:53.350Z,81.60
2018-02-24T09:51:21.044Z,80.70
2018-02-24T09:53:48.675Z,81.40
2018-02-24T09:56:16.298Z,81.30
2018-02-24T10:01:11.595Z,82.10
2018-02-24T10:03:39.236Z,82.10
2018-02-24T10:06:06.920Z,81.70
2018-02-24T10:08:34.551Z,82.00
2018-02-24T10:11:02.179Z,81.70
2018-02-24T10:13:29.854Z,81.10
2018-02-24T10:15:57.483Z,81.20
2018-02-24T10:20:52.797Z,84.30
2018-02-24T10:23:20.424Z,86.10
2018-02-24T10:25:48.063Z,85.50
2018-02-24T10:28:16.196Z,83.20
2018-02-24T10:30:43.819Z,83.20
2018-02-24T10:33:11.466Z,82.40
2018-02-24T10:35:39.145Z,82.30
2018-02-24T10:40:45.952Z,82.30
2018-02-24T10:43:13.588Z,81.90
2018-02-24T10:45:41.218Z,81.50
2018-02-24T10:48:08.912Z,82.10
2018-02-24T10:50:36.538Z,82.30
2018-02-24T10:53:04.636Z,81.30
2018-02-24T10:55:32.318Z,81.50
2018-02-24T10:57:59.947Z,81.70
2018-02-24T11:00:27.570Z,81.30
2018-02-24T11:02:55.254Z,80.30
2018-02-24T11:05:25.965Z,80.40
2018-02-24T11:07:53.593Z,79.90
2018-02-24T11:10:21.271Z,80.20
2018-02-24T11:12:48.901Z,79.80
2018-02-24T11:15:16.530Z,79.30
2018-02-24T11:17:44.224Z,78.80
2018-02-24T11:20:11.836Z,78.40
2018-02-24T11:22:39.464Z,78.30
2018-02-24T11:25:07.160Z,79.10
2018-02-24T11:27:34.789Z,78.50
2018-02-24T11:30:02.434Z,78.20
2018-02-24T11:32:30.112Z,79.10
2018-02-24T11:37:25.363Z,79.10
2018-02-24T11:39:53.048Z,79.40
2018-02-24T11:42:20.683Z,78.30
2018-02-24T11:44:48.319Z,78.60
2018-02-24T11:47:16.003Z,77.70
2018-02-24T11:49:43.643Z,76.60
2018-02-24T11:52:11.268Z,76.40
2018-02-24T11:54:42.103Z,76.70
2018-02-24T11:57:09.735Z,75.30
2018-02-24T11:59:37.370Z,76.10
2018-02-24T12:04:44.162Z,75.10
2018-02-24T12:07:11.839Z,74.50
2018-02-24T12:09:39.465Z,75.10
2018-02-24T12:12:08.153Z,75.40
2018-02-24T12:14:35.852Z,74.30
2018-02-24T12:17:03.465Z,73.90
2018-02-24T12:19:31.091Z,74.10
2018-02-24T12:21:58.772Z,72.40
2018-02-24T12:24:26.397Z,71.90
2018-02-24T12:26:54.031Z,71.40
2018-02-24T12:29:21.718Z,70.70
2018-02-24T12:31:49.336Z,71.40
2018-02-24T12:34:16.964Z,70.30
2018-02-24T12:36:44.644Z,71.20
2018-02-24T12:39:12.262Z,70.00
2018-02-24T12:41:39.882Z,70.10
2018-02-24T12:44:07.563Z,70.00
2018-02-24T12:46:35.252Z,70.90
2018-02-24T12:49:02.832Z,71.20
2018-02-24T12:51:30.505Z,70.20
2018-02-24T12:53:58.136Z,70.70
2018-02-24T12:56:25.758Z,71.80
2018-02-24T12:58:53.435Z,70.10
2018-02-24T13:01:21.066Z,69.10
2018-02-24T13:03:49.028Z,68.30
2018-02-24T13:06:16.716Z,68.50
2018-02-24T13:08:44.358Z,66.60
2018-02-24T13:11:11.977Z,67.20
2018-02-24T13:13:39.665Z,68.40
2018-02-24T13:16:07.287Z,68.00
2018-02-24T13:18:34.920Z,66.50
2018-02-24T13:21:02.611Z,68.50
2018-02-24T13:26:09.384Z,69.50
2018-02-24T13:28:37.042Z,69.60
2018-02-24T13:33:45.356Z,69.70
2018-02-24T13:36:12.975Z,67.70
2018-02-24T13:38:40.604Z,68.80
2018-02-24T13:41:08.370Z,70.30
2018-02-24T13:43:35.990Z,70.70
2018-02-24T13:46:03.622Z,74.40
2018-02-24T13:48:31.456Z,76.50
2018-02-24T13:50:59.091Z,75.40
2018-02-24T13:53:26.724Z,76.30
2018-02-24T13:55:54.414Z,75.80
2018-02-24T13:58:22.031Z,73.60
2018-02-24T14:00:49.664Z,73.40
2018-02-24T14:03:17.338Z,72.70
2018-02-24T14:05:44.978Z,71.80
2018-02-24T14:08:12.596Z,69.70
2018-02-24T14:10:40.295Z,68.40
2018-02-24T14:13:07.969Z,67.50
2018-02-24T14:15:36.915Z,69.30
2018-02-24T14:18:04.599Z,67.80
2018-02-24T14:20:32.231Z,68.80
2018-02-24T14:22:59.864Z,71.20
2018-02-24T14:30:35.816Z,72.00
2018-02-24T14:33:03.447Z,70.80
2018-02-24T14:35:31.078Z,70.80
2018-02-24T14:37:58.765Z,71.00
2018-02-24T14:40:26.391Z,71.20
2018-02-24T14:42:54.020Z,68.20
2018-02-24T14:45:21.701Z,69.80
2018-02-24T14:50:16.966Z,72.30
2018-02-24T14:52:44.651Z,72.50
2018-02-24T14:55:12.286Z,72.70
2018-02-24T14:57:39.915Z,72.00
2018-02-24T15:00:07.608Z,73.20
2018-02-24T15:02:35.246Z,73.30
2018-02-24T15:05:02.862Z,73.30
2018-02-24T15:07:31.060Z,74.10
2018-02-24T15:09:58.684Z,73.70
2018-02-24T15:12:26.311Z,74.30
2018-02-24T15:14:54.010Z,74.40
2018-02-24T15:17:21.647Z,75.00
2018-02-24T15:19:49.267Z,74.60
2018-02-24T15:22:16.943Z,75.80
2018-02-24T15:24:45.272Z,75.00
2018-02-24T15:27:12.792Z,74.70
2018-02-24T15:29:43.444Z,75.10
2018-02-24T15:32:11.061Z,75.90
2018-02-24T15:34:42.396Z,76.40
2018-02-24T15:37:10.980Z,75.10
2018-02-24T15:39:38.614Z,75.50
2018-02-24T15:42:06.238Z,75.30
2018-02-24T15:44:33.923Z,74.80
2018-02-24T15:47:01.554Z,74.50
2018-02-24T15:52:12.946Z,75.30
2018-02-24T15:57:19.716Z,75.70
2018-02-24T15:59:47.364Z,75.80
2018-02-24T16:02:14.991Z,74.30
2018-02-24T16:04:42.674Z,74.70
2018-02-24T16:09:37.930Z,75.80
2018-02-24T16:12:05.599Z,75.70
2018-02-24T16:14:33.232Z,75.20
2018-02-24T16:17:00.849Z,75.40
2018-02-24T16:19:28.540Z,74.70
2018-02-24T16:21:56.183Z,75.10
2018-02-24T16:24:23.808Z,75.70
2018-02-24T16:29:30.294Z,76.30
2018-02-24T16:31:57.992Z,76.40
2018-02-24T16:34:25.616Z,76.30
2018-02-24T16:36:53.438Z,75.30
2018-02-24T16:39:21.115Z,76.10
2018-02-24T16:41:48.771Z,76.40
2018-02-24T16:44:18.414Z,76.30
2018-02-24T16:46:44.105Z,76.90
2018-02-24T16:51:44.051Z,75.50
2018-02-24T16:54:11.802Z,76.70
2018-02-24T16:56:39.440Z,76.40
2018-02-24T16:59:07.079Z,76.70
2018-02-24T17:01:34.819Z,75.40
2018-02-24T17:04:02.449Z,74.90
2018-02-24T17:06:30.385Z,74.40
2018-02-24T17:08:58.077Z,76.10
2018-02-24T17:11:25.770Z,76.40
2018-02-24T17:16:32.216Z,76.50
2018-02-24T17:18:59.845Z,77.60
2018-02-24T17:21:27.477Z,77.70
2018-02-24T17:23:55.165Z,77.60
2018-02-24T17:26:22.800Z,77.20
2018-02-24T17:31:18.154Z,77.00
2018-02-24T17:33:45.801Z,76.40
2018-02-24T17:38:41.150Z,77.40
2018-02-24T17:41:08.788Z,76.10
2018-02-24T17:43:36.483Z,75.90
2018-02-24T17:46:04.166Z,75.90
2018-02-24T17:48:31.815Z,76.20
2018-02-24T17:50:59.455Z,75.90
2018-02-24T17:53:27.147Z,75.40
2018-02-24T17:55:54.784Z,75.70
2018-02-24T17:58:22.411Z,75.90
2018-02-24T18:00:50.115Z,75.80
2018-02-24T18:03:17.757Z,74.90
2018-02-24T18:05:45.388Z,75.30
2018-02-24T18:08:13.081Z,74.80
2018-02-24T18:10:40.735Z,75.80
2018-02-24T18:13:08.369Z,75.70
2018-02-24T18:15:36.071Z,75.80
2018-02-24T18:18:03.700Z,75.00
2018-02-24T18:20:32.106Z,74.40
2018-02-24T18:22:59.837Z,74.00
2018-02-24T18:25:27.452Z,74.10
2018-02-24T18:27:55.056Z,73.80
2018-02-24T18:30:22.759Z,73.70
2018-02-24T18:32:50.394Z,74.20
2018-02-24T18:37:57.171Z,73.70
2018-02-24T18:40:24.801Z,74.10
2018-02-24T18:42:52.438Z,73.20
2018-02-24T18:45:20.145Z,73.00
2018-02-24T18:47:47.837Z,73.00
2018-02-24T18:50:15.481Z,72.00
2018-02-24T18:52:43.139Z,72.40
2018-02-24T18:55:10.893Z,72.10
2018-02-24T18:57:38.475Z,72.40
2018-02-24T19:00:06.114Z,73.10
2018-02-24T19:02:33.821Z,72.90
2018-02-24T19:05:01.454Z,72.80
2018-02-24T19:07:29.100Z,72.20
2018-02-24T19:09:56.801Z,71.20
2018-02-24T19:12:24.448Z,71.10
2018-02-24T19:14:52.116Z,70.80
2018-02-24T19:17:19.788Z,70.50
2018-02-24T19:19:47.410Z,70.00
2018-02-24T19:22:15.101Z,70.00
2018-02-24T19:29:42.255Z,68.40
2018-02-24T19:32:09.327Z,68.60
2018-02-24T19:34:37.427Z,68.70
2018-02-24T19:37:04.538Z,68.40
2018-02-24T19:39:31.610Z,68.20
2018-02-24T19:41:58.654Z,68.10
2018-02-24T19:44:25.760Z,68.60
2018-02-24T19:46:52.810Z,68.70
2018-02-24T19:49:20.084Z,66.80
2018-02-24T19:51:47.188Z,67.40
2018-02-24T19:56:52.490Z,67.30
2018-02-24T19:59:19.809Z,66.40
2018-02-24T20:01:46.811Z,66.10
2018-02-24T20:04:14.440Z,65.60
2018-02-24T20:06:41.476Z,65.80
2018-02-24T20:09:08.534Z,65.70
2018-02-24T20:11:35.572Z,65.40
2018-02-24T20:14:02.673Z,66.70
2018-02-24T20:18:56.978Z,65.40
2018-02-24T20:21:24.083Z,65.00
2018-02-24T20:23:51.134Z,65.70
2018-02-24T20:26:18.183Z,65.20
2018-02-24T20:28:45.276Z,65.70
2018-02-24T20:31:12.358Z,65.00
2018-02-24T20:33:39.466Z,65.30
2018-02-24T20:36:06.573Z,65.80
2018-02-24T20:38:34.372Z,65.50
2018-02-24T20:43:41.770Z,65.00
2018-02-24T20:46:08.850Z,65.30
2018-02-24T20:48:36.130Z,64.00
2018-02-24T20:51:03.219Z,64.50
2018-02-24T20:53:30.304Z,65.20
2018-02-24T20:55:57.362Z,65.30
2018-02-24T20:58:24.475Z,65.00
2018-02-24T21:00:51.532Z,64.30
2018-02-24T21:03:18.583Z,65.00
2018-02-24T21:05:45.711Z,64.80
2018-02-24T21:08:12.796Z,65.10
2018-02-24T21:10:39.870Z,65.60
2018-02-24T21:15:45.183Z,65.50
2018-02-24T21:18:12.362Z,65.50
2018-02-24T21:20:39.380Z,65.40
2018-02-24T21:25:44.780Z,65.30
2018-02-24T21:28:11.836Z,65.20
2018-02-24T21:35:33.279Z,65.80
2018-02-24T21:38:00.871Z,65.50
2018-02-24T21:40:28.606Z,65.30
2018-02-24T21:42:55.663Z,64.50
2018-02-24T21:45:22.739Z,65.20
2018-02-24T21:47:50.264Z,66.30
2018-02-24T21:50:17.316Z,66.10
2018-02-24T21:52:44.382Z,66.00
2018-02-24T21:55:11.529Z,66.30
2018-02-24T21:57:38.554Z,66.70
2018-02-24T22:00:05.691Z,66.30
2018-02-24T22:02:32.754Z,66.40
2018-02-24T22:04:59.829Z,66.60
2018-02-24T22:07:26.912Z,66.30
2018-02-24T22:09:54.046Z,66.50
2018-02-24T22:12:21.099Z,66.60
2018-02-24T22:14:48.159Z,66.90
2018-02-24T22:17:15.293Z,66.60
2018-02-24T22:19:42.348Z,66.50
2018-02-24T22:22:09.396Z,66.00
2018-02-24T22:24:36.794Z,66.30
2018-02-24T22:27:04.003Z,65.90
2018-02-24T22:29:31.016Z,65.80
2018-02-24T22:31:58.147Z,65.40
2018-02-24T22:34:25.222Z,65.50
2018-02-24T22:36:52.277Z,66.20
2018-02-24T22:39:19.380Z,66.20
2018-02-24T22:41:51.940Z,66.40
2018-02-24T22:44:19.021Z,66.10
2018-02-24T22:46:46.123Z,66.80
2018-02-24T22:51:51.824Z,66.40
2018-02-24T22:54:18.885Z,66.60
2018-02-24T22:56:46.079Z,66.50
2018-02-24T22:59:13.558Z,66.40
2018-02-24T23:01:40.603Z,67.10
2018-02-24T23:04:07.691Z,67.20
2018-02-24T23:06:34.881Z,68.00
2018-02-24T23:09:02.242Z,67.20
2018-02-24T23:11:29.298Z,67.70
2018-02-24T23:13:56.423Z,67.40
2018-02-24T23:16:23.487Z,67.40
2018-02-24T23:18:50.550Z,67.80
2018-02-24T23:21:18.156Z,67.70
2018-02-24T23:23:45.913Z,67.90
2018-02-24T23:28:54.094Z,67.60
2018-02-24T23:31:24.978Z,67.80
2018-02-24T23:33:54.933Z,66.60
2018-02-24T23:36:21.503Z,67.30
2018-02-24T23:38:48.550Z,67.10
2018-02-24T23:41:15.594Z,67.80
2018-02-24T23:43:43.247Z,67.20
2018-02-24T23:46:10.298Z,68.60
2018-02-24T23:48:38.005Z,69.10
2018-02-24T23:53:32.804Z,67.10
2018-02-24T23:55:59.853Z,67.50
2018-02-24T23:58:26.958Z,67.80
